TimeCDT,TemperatureF,Dew PointF,Humidity,Sea Level PressureIn,VisibilityMPH,Wind Direction,Wind SpeedMPH,Gust SpeedMPH,PrecipitationIn,Events,Conditions,WindDirDegrees,DateUTC
12:53 AM,54.0,46.0,75,30.12,10.0,Calm,Calm,-,N/A,,Clear,0,2013-09-14 05:53:00
1:53 AM,55.9,46.9,72,30.12,10.0,East,5.8,-,N/A,,Clear,80,2013-09-14 06:53:00
2:53 AM,53.1,46.0,77,30.12,10.0,Calm,Calm,-,N/A,,Clear,0,2013-09-14 07:53:00
3:53 AM,53.1,46.0,77,30.11,10.0,Calm,Calm,-,N/A,,Clear,0,2013-09-14 08:53:00
4:53 AM,51.1,45.0,80,30.12,10.0,Calm,Calm,-,N/A,,Clear,0,2013-09-14 09:53:00
5:53 AM,50.0,45.0,83,30.13,10.0,Calm,Calm,-,N/A,,Clear,0,2013-09-14 10:53:00
6:53 AM,46.9,44.1,90,30.14,10.0,Calm,Calm,-,N/A,,Clear,0,2013-09-14 11:53:00
7:53 AM,54.0,48.0,80,30.16,10.0,Calm,Calm,-,N/A,,Clear,0,2013-09-14 12:53:00
8:53 AM,57.9,46.9,67,30.17,10.0,Calm,Calm,-,N/A,,Clear,0,2013-09-14 13:53:00
9:53 AM,62.1,48.0,60,30.18,10.0,Calm,Calm,-,N/A,,Clear,0,2013-09-14 14:53:00
10:53 AM,64.9,46.0,50,30.17,10.0,Calm,Calm,-,N/A,,Clear,0,2013-09-14 15:53:00
11:53 AM,70.0,41.0,35,30.16,10.0,Variable,5.8,-,N/A,,Clear,0,2013-09-14 16:53:00
12:53 PM,72.0,35.1,26,30.14,10.0,ENE,5.8,-,N/A,,Clear,60,2013-09-14 17:53:00
1:53 PM,73.0,35.1,25,30.10,10.0,Calm,Calm,-,N/A,,Clear,0,2013-09-14 18:53:00
2:53 PM,75.9,36.0,23,30.08,10.0,ESE,9.2,-,N/A,,Clear,120,2013-09-14 19:53:00
3:53 PM,77.0,37.0,24,30.06,10.0,SE,4.6,-,N/A,,Clear,130,2013-09-14 20:53:00
4:53 PM,75.0,35.1,23,30.05,10.0,SSE,4.6,-,N/A,,Clear,150,2013-09-14 21:53:00
5:53 PM,73.0,37.9,28,30.04,10.0,ESE,6.9,-,N/A,,Clear,120,2013-09-14 22:53:00
6:53 PM,68.0,44.1,42,30.05,10.0,ESE,4.6,-,N/A,,Clear,120,2013-09-14 23:53:00
7:53 PM,62.1,45.0,53,30.05,10.0,Calm,Calm,-,N/A,,Clear,0,2013-09-15 00:53:00
8:53 PM,61.0,46.0,58,30.06,10.0,SE,4.6,-,N/A,,Clear,140,2013-09-15 01:53:00
9:53 PM,57.0,46.0,67,30.06,10.0,SE,4.6,-,N/A,,Clear,140,2013-09-15 02:53:00
10:53 PM,57.9,46.0,65,30.05,10.0,SSE,4.6,-,N/A,,Clear,150,2013-09-15 03:53:00
11:53 PM,55.0,46.9,74,30.06,10.0,SSE,3.5,-,N/A,,Clear,150,2013-09-15 04:53:00